sensor_id;sensor_type;location;lat;lon;timestamp;P1;durP1;ratioP1;P2;durP2;ratioP2
18657;SDS011;9458;50.942;5.074;2022-09-09T00:00:00;2.03;;;0.60;;
18657;SDS011;9458;50.942;5.074;2022-09-09T00:02:30;1.13;;;0.70;;
18657;SDS011;9458;50.942;5.074;2022-09-09T00:04:58;0.88;;;0.60;;
18657;SDS011;9458;50.942;5.074;2022-09-09T00:07:32;3.83;;;0.68;;
18657;SDS011;9458;50.942;5.074;2022-09-09T00:10:12;1.55;;;1.02;;
18657;SDS011;9458;50.942;5.074;2022-09-09T00:12:50;1.52;;;0.80;;
18657;SDS011;9458;50.942;5.074;2022-09-09T00:15:22;1.15;;;0.90;;
18657;SDS011;9458;50.942;5.074;2022-09-09T00:18:11;1.65;;;0.70;;
18657;SDS011;9458;50.942;5.074;2022-09-09T00:20:49;3.25;;;0.90;;
18657;SDS011;9458;50.942;5.074;2022-09-09T00:23:32;1.77;;;0.70;;
18657;SDS011;9458;50.942;5.074;2022-09-09T00:26:07;2.15;;;0.70;;
18657;SDS011;9458;50.942;5.074;2022-09-09T00:28:44;0.90;;;0.80;;
18657;SDS011;9458;50.942;5.074;2022-09-09T00:31:20;1.23;;;0.85;;
18657;SDS011;9458;50.942;5.074;2022-09-09T00:33:55;0.95;;;0.75;;
18657;SDS011;9458;50.942;5.074;2022-09-09T00:36:29;1.40;;;0.80;;
18657;SDS011;9458;50.942;5.074;2022-09-09T00:39:02;3.42;;;1.00;;
18657;SDS011;9458;50.942;5.074;2022-09-09T00:41:33;1.15;;;1.05;;
18657;SDS011;9458;50.942;5.074;2022-09-09T00:44:14;1.25;;;0.90;;
18657;SDS011;9458;50.942;5.074;2022-09-09T00:46:54;1.42;;;0.80;;
18657;SDS011;9458;50.942;5.074;2022-09-09T00:49:33;2.17;;;0.98;;
18657;SDS011;9458;50.942;5.074;2022-09-09T00:52:10;2.67;;;1.00;;
18657;SDS011;9458;50.942;5.074;2022-09-09T00:54:51;2.90;;;1.00;;
18657;SDS011;9458;50.942;5.074;2022-09-09T00:57:27;2.60;;;1.02;;
18657;SDS011;9458;50.942;5.074;2022-09-09T01:00:15;1.10;;;0.90;;
18657;SDS011;9458;50.942;5.074;2022-09-09T01:02:48;4.57;;;0.90;;
18657;SDS011;9458;50.942;5.074;2022-09-09T01:05:30;2.30;;;0.90;;
18657;SDS011;9458;50.942;5.074;2022-09-09T01:08:05;2.22;;;0.70;;
18657;SDS011;9458;50.942;5.074;2022-09-09T01:10:40;1.65;;;1.00;;
18657;SDS011;9458;50.942;5.074;2022-09-09T01:13:15;1.98;;;0.80;;
18657;SDS011;9458;50.942;5.074;2022-09-09T01:15:50;3.50;;;0.82;;
18657;SDS011;9458;50.942;5.074;2022-09-09T01:18:19;1.40;;;0.73;;
18657;SDS011;9458;50.942;5.074;2022-09-09T01:20:53;2.28;;;0.90;;
18657;SDS011;9458;50.942;5.074;2022-09-09T01:23:38;3.30;;;0.98;;
18657;SDS011;9458;50.942;5.074;2022-09-09T01:29:06;1.58;;;0.80;;
18657;SDS011;9458;50.942;5.074;2022-09-09T01:31:36;3.60;;;1.00;;
18657;SDS011;9458;50.942;5.074;2022-09-09T01:34:10;4.78;;;0.98;;
18657;SDS011;9458;50.942;5.074;2022-09-09T01:36:40;3.22;;;1.02;;
18657;SDS011;9458;50.942;5.074;2022-09-09T01:39:11;3.33;;;0.88;;
18657;SDS011;9458;50.942;5.074;2022-09-09T01:41:40;1.30;;;0.70;;
18657;SDS011;9458;50.942;5.074;2022-09-09T01:44:08;3.75;;;0.90;;
18657;SDS011;9458;50.942;5.074;2022-09-09T01:46:36;4.88;;;1.02;;
18657;SDS011;9458;50.942;5.074;2022-09-09T01:49:05;3.67;;;1.00;;
18657;SDS011;9458;50.942;5.074;2022-09-09T01:51:34;1.88;;;0.77;;
18657;SDS011;9458;50.942;5.074;2022-09-09T01:54:05;9.07;;;0.98;;
18657;SDS011;9458;50.942;5.074;2022-09-09T01:56:35;2.33;;;0.90;;
18657;SDS011;9458;50.942;5.074;2022-09-09T01:59:20;3.83;;;1.05;;
18657;SDS011;9458;50.942;5.074;2022-09-09T02:02:06;1.88;;;1.15;;
18657;SDS011;9458;50.942;5.074;2022-09-09T02:04:37;3.33;;;0.90;;
18657;SDS011;9458;50.942;5.074;2022-09-09T02:07:11;4.18;;;1.00;;
18657;SDS011;9458;50.942;5.074;2022-09-09T02:09:52;6.22;;;1.10;;
18657;SDS011;9458;50.942;5.074;2022-09-09T02:12:27;1.60;;;1.10;;
18657;SDS011;9458;50.942;5.074;2022-09-09T02:14:59;3.28;;;1.13;;
18657;SDS011;9458;50.942;5.074;2022-09-09T02:17:33;2.50;;;1.15;;
18657;SDS011;9458;50.942;5.074;2022-09-09T02:20:05;5.10;;;1.42;;
18657;SDS011;9458;50.942;5.074;2022-09-09T02:22:34;6.65;;;1.20;;
18657;SDS011;9458;50.942;5.074;2022-09-09T02:25:06;5.25;;;1.50;;
18657;SDS011;9458;50.942;5.074;2022-09-09T02:27:39;4.95;;;1.48;;
18657;SDS011;9458;50.942;5.074;2022-09-09T02:30:09;2.20;;;1.25;;
18657;SDS011;9458;50.942;5.074;2022-09-09T02:32:38;3.17;;;1.40;;
18657;SDS011;9458;50.942;5.074;2022-09-09T02:35:08;4.32;;;1.00;;
18657;SDS011;9458;50.942;5.074;2022-09-09T02:37:40;4.03;;;1.20;;
18657;SDS011;9458;50.942;5.074;2022-09-09T02:40:13;3.20;;;1.17;;
18657;SDS011;9458;50.942;5.074;2022-09-09T02:42:44;4.38;;;1.35;;
18657;SDS011;9458;50.942;5.074;2022-09-09T02:45:13;2.92;;;1.20;;
18657;SDS011;9458;50.942;5.074;2022-09-09T02:47:44;4.85;;;1.58;;
18657;SDS011;9458;50.942;5.074;2022-09-09T02:50:17;2.47;;;1.15;;
18657;SDS011;9458;50.942;5.074;2022-09-09T02:52:52;4.03;;;1.45;;
18657;SDS011;9458;50.942;5.074;2022-09-09T02:55:31;3.35;;;1.20;;
18657;SDS011;9458;50.942;5.074;2022-09-09T02:58:10;2.05;;;1.10;;
18657;SDS011;9458;50.942;5.074;2022-09-09T03:00:43;3.20;;;1.30;;
18657;SDS011;9458;50.942;5.074;2022-09-09T03:03:22;3.83;;;1.38;;
18657;SDS011;9458;50.942;5.074;2022-09-09T03:05:59;5.63;;;1.30;;
18657;SDS011;9458;50.942;5.074;2022-09-09T03:08:36;3.85;;;1.10;;
18657;SDS011;9458;50.942;5.074;2022-09-09T03:11:14;4.68;;;1.38;;
18657;SDS011;9458;50.942;5.074;2022-09-09T03:13:53;3.00;;;1.33;;
18657;SDS011;9458;50.942;5.074;2022-09-09T03:16:21;4.18;;;1.23;;
18657;SDS011;9458;50.942;5.074;2022-09-09T03:18:48;2.95;;;0.95;;
18657;SDS011;9458;50.942;5.074;2022-09-09T03:21:17;2.13;;;1.30;;
18657;SDS011;9458;50.942;5.074;2022-09-09T03:23:45;6.50;;;1.30;;
18657;SDS011;9458;50.942;5.074;2022-09-09T03:26:13;2.92;;;1.48;;
18657;SDS011;9458;50.942;5.074;2022-09-09T03:28:41;2.75;;;1.30;;
18657;SDS011;9458;50.942;5.074;2022-09-09T03:31:11;4.68;;;1.05;;
18657;SDS011;9458;50.942;5.074;2022-09-09T03:33:40;2.22;;;1.48;;
18657;SDS011;9458;50.942;5.074;2022-09-09T03:36:07;2.97;;;1.20;;
18657;SDS011;9458;50.942;5.074;2022-09-09T03:38:35;2.42;;;0.98;;
18657;SDS011;9458;50.942;5.074;2022-09-09T03:41:04;5.07;;;1.35;;
18657;SDS011;9458;50.942;5.074;2022-09-09T03:43:32;4.95;;;1.25;;
18657;SDS011;9458;50.942;5.074;2022-09-09T03:46:00;2.33;;;1.17;;
18657;SDS011;9458;50.942;5.074;2022-09-09T03:48:30;3.55;;;1.13;;
18657;SDS011;9458;50.942;5.074;2022-09-09T03:50:58;5.05;;;1.38;;
18657;SDS011;9458;50.942;5.074;2022-09-09T03:53:26;2.85;;;1.20;;
18657;SDS011;9458;50.942;5.074;2022-09-09T03:55:55;4.90;;;1.50;;
18657;SDS011;9458;50.942;5.074;2022-09-09T03:58:28;4.28;;;1.35;;
18657;SDS011;9458;50.942;5.074;2022-09-09T04:00:55;4.82;;;1.10;;
18657;SDS011;9458;50.942;5.074;2022-09-09T04:03:24;3.15;;;1.33;;
18657;SDS011;9458;50.942;5.074;2022-09-09T04:05:55;5.28;;;1.35;;
18657;SDS011;9458;50.942;5.074;2022-09-09T04:08:24;4.72;;;1.30;;
18657;SDS011;9458;50.942;5.074;2022-09-09T04:10:52;6.55;;;1.30;;
18657;SDS011;9458;50.942;5.074;2022-09-09T04:13:24;5.68;;;1.58;;
18657;SDS011;9458;50.942;5.074;2022-09-09T04:15:53;5.43;;;1.27;;
18657;SDS011;9458;50.942;5.074;2022-09-09T04:18:21;4.50;;;1.40;;
18657;SDS011;9458;50.942;5.074;2022-09-09T04:20:50;3.03;;;1.33;;
18657;SDS011;9458;50.942;5.074;2022-09-09T04:23:20;2.85;;;1.33;;
18657;SDS011;9458;50.942;5.074;2022-09-09T04:25:50;6.20;;;1.30;;
18657;SDS011;9458;50.942;5.074;2022-09-09T04:28:19;2.72;;;0.82;;
18657;SDS011;9458;50.942;5.074;2022-09-09T04:30:49;4.57;;;1.65;;
18657;SDS011;9458;50.942;5.074;2022-09-09T04:33:17;5.40;;;1.65;;
18657;SDS011;9458;50.942;5.074;2022-09-09T04:35:45;3.65;;;1.17;;
18657;SDS011;9458;50.942;5.074;2022-09-09T04:38:14;4.40;;;1.20;;
18657;SDS011;9458;50.942;5.074;2022-09-09T04:40:43;4.78;;;1.13;;
18657;SDS011;9458;50.942;5.074;2022-09-09T04:43:13;3.13;;;1.30;;
18657;SDS011;9458;50.942;5.074;2022-09-09T04:45:40;3.67;;;1.25;;
18657;SDS011;9458;50.942;5.074;2022-09-09T04:48:08;4.80;;;1.23;;
18657;SDS011;9458;50.942;5.074;2022-09-09T04:50:36;3.53;;;1.30;;
18657;SDS011;9458;50.942;5.074;2022-09-09T04:53:03;3.13;;;1.30;;
18657;SDS011;9458;50.942;5.074;2022-09-09T04:55:31;6.38;;;1.48;;
18657;SDS011;9458;50.942;5.074;2022-09-09T04:58:04;5.05;;;1.38;;
18657;SDS011;9458;50.942;5.074;2022-09-09T05:00:32;7.40;;;1.63;;
18657;SDS011;9458;50.942;5.074;2022-09-09T05:03:01;3.03;;;1.25;;
18657;SDS011;9458;50.942;5.074;2022-09-09T05:05:29;4.80;;;1.50;;
18657;SDS011;9458;50.942;5.074;2022-09-09T05:08:00;3.30;;;1.65;;
18657;SDS011;9458;50.942;5.074;2022-09-09T05:10:29;3.67;;;1.23;;
18657;SDS011;9458;50.942;5.074;2022-09-09T05:12:58;5.32;;;1.48;;
18657;SDS011;9458;50.942;5.074;2022-09-09T05:15:27;4.97;;;1.63;;
18657;SDS011;9458;50.942;5.074;2022-09-09T05:17:56;6.90;;;1.70;;
18657;SDS011;9458;50.942;5.074;2022-09-09T05:20:25;5.15;;;1.58;;
18657;SDS011;9458;50.942;5.074;2022-09-09T05:22:53;6.20;;;1.60;;
18657;SDS011;9458;50.942;5.074;2022-09-09T05:25:21;5.15;;;1.30;;
18657;SDS011;9458;50.942;5.074;2022-09-09T05:27:49;5.13;;;1.67;;
18657;SDS011;9458;50.942;5.074;2022-09-09T05:30:17;6.82;;;1.70;;
18657;SDS011;9458;50.942;5.074;2022-09-09T05:32:46;3.80;;;1.70;;
18657;SDS011;9458;50.942;5.074;2022-09-09T05:35:14;4.95;;;1.73;;
18657;SDS011;9458;50.942;5.074;2022-09-09T05:37:44;4.55;;;1.48;;
18657;SDS011;9458;50.942;5.074;2022-09-09T05:40:13;6.18;;;1.60;;
18657;SDS011;9458;50.942;5.074;2022-09-09T05:42:40;7.78;;;1.45;;
18657;SDS011;9458;50.942;5.074;2022-09-09T05:45:08;3.50;;;2.10;;
18657;SDS011;9458;50.942;5.074;2022-09-09T05:47:36;5.90;;;1.92;;
18657;SDS011;9458;50.942;5.074;2022-09-09T05:50:06;5.85;;;1.88;;
18657;SDS011;9458;50.942;5.074;2022-09-09T05:52:34;6.38;;;1.60;;
18657;SDS011;9458;50.942;5.074;2022-09-09T05:55:02;8.40;;;1.98;;
18657;SDS011;9458;50.942;5.074;2022-09-09T05:57:31;3.75;;;1.38;;
18657;SDS011;9458;50.942;5.074;2022-09-09T05:59:58;4.05;;;1.70;;
18657;SDS011;9458;50.942;5.074;2022-09-09T06:02:26;7.13;;;2.22;;
18657;SDS011;9458;50.942;5.074;2022-09-09T06:04:53;7.43;;;1.83;;
18657;SDS011;9458;50.942;5.074;2022-09-09T06:07:22;6.20;;;1.80;;
18657;SDS011;9458;50.942;5.074;2022-09-09T06:09:56;6.25;;;1.52;;
18657;SDS011;9458;50.942;5.074;2022-09-09T06:12:25;5.50;;;1.67;;
18657;SDS011;9458;50.942;5.074;2022-09-09T06:14:53;6.75;;;2.00;;
18657;SDS011;9458;50.942;5.074;2022-09-09T06:17:22;6.95;;;1.67;;
18657;SDS011;9458;50.942;5.074;2022-09-09T06:19:49;4.43;;;1.38;;
18657;SDS011;9458;50.942;5.074;2022-09-09T06:22:17;3.20;;;1.75;;
18657;SDS011;9458;50.942;5.074;2022-09-09T06:24:46;5.70;;;2.10;;
18657;SDS011;9458;50.942;5.074;2022-09-09T06:27:14;3.00;;;1.13;;
18657;SDS011;9458;50.942;5.074;2022-09-09T06:29:41;6.45;;;1.25;;
18657;SDS011;9458;50.942;5.074;2022-09-09T06:32:09;6.15;;;1.80;;
18657;SDS011;9458;50.942;5.074;2022-09-09T06:34:37;6.00;;;1.20;;
18657;SDS011;9458;50.942;5.074;2022-09-09T06:37:04;4.63;;;1.33;;
18657;SDS011;9458;50.942;5.074;2022-09-09T06:39:33;5.78;;;1.48;;
18657;SDS011;9458;50.942;5.074;2022-09-09T06:42:03;4.10;;;1.30;;
18657;SDS011;9458;50.942;5.074;2022-09-09T06:44:30;5.00;;;1.35;;
18657;SDS011;9458;50.942;5.074;2022-09-09T06:46:59;4.18;;;1.35;;
18657;SDS011;9458;50.942;5.074;2022-09-09T06:49:26;6.65;;;1.27;;
18657;SDS011;9458;50.942;5.074;2022-09-09T06:51:54;2.45;;;1.02;;
18657;SDS011;9458;50.942;5.074;2022-09-09T06:54:22;3.92;;;1.40;;
18657;SDS011;9458;50.942;5.074;2022-09-09T06:56:51;8.50;;;2.10;;
18657;SDS011;9458;50.942;5.074;2022-09-09T06:59:20;8.52;;;1.42;;
18657;SDS011;9458;50.942;5.074;2022-09-09T07:01:47;6.63;;;1.73;;
18657;SDS011;9458;50.942;5.074;2022-09-09T07:04:17;5.82;;;1.50;;
18657;SDS011;9458;50.942;5.074;2022-09-09T07:06:45;4.50;;;1.17;;
18657;SDS011;9458;50.942;5.074;2022-09-09T07:09:14;5.10;;;1.40;;
18657;SDS011;9458;50.942;5.074;2022-09-09T07:11:43;2.95;;;1.13;;
18657;SDS011;9458;50.942;5.074;2022-09-09T07:14:11;3.50;;;1.20;;
18657;SDS011;9458;50.942;5.074;2022-09-09T07:16:41;4.38;;;1.50;;
18657;SDS011;9458;50.942;5.074;2022-09-09T07:19:09;5.45;;;1.50;;
18657;SDS011;9458;50.942;5.074;2022-09-09T07:21:37;4.03;;;1.42;;
18657;SDS011;9458;50.942;5.074;2022-09-09T07:24:05;5.70;;;1.23;;
18657;SDS011;9458;50.942;5.074;2022-09-09T07:26:35;6.00;;;1.63;;
18657;SDS011;9458;50.942;5.074;2022-09-09T07:29:03;4.57;;;1.50;;
18657;SDS011;9458;50.942;5.074;2022-09-09T07:31:31;8.38;;;1.65;;
18657;SDS011;9458;50.942;5.074;2022-09-09T07:34:04;5.50;;;1.58;;
18657;SDS011;9458;50.942;5.074;2022-09-09T07:36:32;6.25;;;1.63;;
18657;SDS011;9458;50.942;5.074;2022-09-09T07:39:08;6.68;;;1.80;;
18657;SDS011;9458;50.942;5.074;2022-09-09T07:41:39;4.97;;;1.30;;
18657;SDS011;9458;50.942;5.074;2022-09-09T07:44:08;5.00;;;1.63;;
18657;SDS011;9458;50.942;5.074;2022-09-09T07:46:38;3.97;;;1.65;;
18657;SDS011;9458;50.942;5.074;2022-09-09T07:49:08;4.82;;;1.85;;
18657;SDS011;9458;50.942;5.074;2022-09-09T07:51:37;4.95;;;1.80;;
18657;SDS011;9458;50.942;5.074;2022-09-09T07:54:06;4.13;;;1.50;;
18657;SDS011;9458;50.942;5.074;2022-09-09T07:56:35;6.13;;;1.80;;
18657;SDS011;9458;50.942;5.074;2022-09-09T07:59:03;4.43;;;1.70;;
18657;SDS011;9458;50.942;5.074;2022-09-09T08:01:32;7.65;;;1.80;;
18657;SDS011;9458;50.942;5.074;2022-09-09T08:04:03;6.95;;;1.42;;
18657;SDS011;9458;50.942;5.074;2022-09-09T08:06:34;4.38;;;1.45;;
18657;SDS011;9458;50.942;5.074;2022-09-09T08:09:03;5.65;;;1.60;;
18657;SDS011;9458;50.942;5.074;2022-09-09T08:11:31;4.45;;;1.88;;
18657;SDS011;9458;50.942;5.074;2022-09-09T08:14:01;5.53;;;1.75;;
18657;SDS011;9458;50.942;5.074;2022-09-09T08:16:29;8.30;;;1.50;;
18657;SDS011;9458;50.942;5.074;2022-09-09T08:19:00;4.85;;;1.70;;
18657;SDS011;9458;50.942;5.074;2022-09-09T08:21:30;5.13;;;1.90;;
18657;SDS011;9458;50.942;5.074;2022-09-09T08:24:00;5.50;;;1.38;;
18657;SDS011;9458;50.942;5.074;2022-09-09T08:26:40;5.55;;;1.33;;
18657;SDS011;9458;50.942;5.074;2022-09-09T08:29:10;8.00;;;1.80;;
18657;SDS011;9458;50.942;5.074;2022-09-09T08:31:39;5.05;;;1.92;;
18657;SDS011;9458;50.942;5.074;2022-09-09T08:34:07;4.03;;;1.20;;
18657;SDS011;9458;50.942;5.074;2022-09-09T08:36:36;6.00;;;1.42;;
18657;SDS011;9458;50.942;5.074;2022-09-09T08:39:18;6.07;;;1.70;;
18657;SDS011;9458;50.942;5.074;2022-09-09T08:41:59;2.88;;;1.27;;
18657;SDS011;9458;50.942;5.074;2022-09-09T08:45:05;5.32;;;1.42;;
18657;SDS011;9458;50.942;5.074;2022-09-09T08:47:42;5.38;;;1.45;;
18657;SDS011;9458;50.942;5.074;2022-09-09T08:50:24;3.35;;;1.35;;
18657;SDS011;9458;50.942;5.074;2022-09-09T08:52:55;4.93;;;1.90;;
18657;SDS011;9458;50.942;5.074;2022-09-09T08:55:32;3.85;;;1.40;;
18657;SDS011;9458;50.942;5.074;2022-09-09T08:58:09;5.38;;;1.45;;
18657;SDS011;9458;50.942;5.074;2022-09-09T09:00:43;6.05;;;1.40;;
18657;SDS011;9458;50.942;5.074;2022-09-09T09:03:28;6.25;;;1.35;;
18657;SDS011;9458;50.942;5.074;2022-09-09T09:06:04;2.10;;;1.00;;
18657;SDS011;9458;50.942;5.074;2022-09-09T09:08:39;8.38;;;1.30;;
18657;SDS011;9458;50.942;5.074;2022-09-09T09:11:14;5.65;;;1.83;;
18657;SDS011;9458;50.942;5.074;2022-09-09T09:13:43;4.25;;;1.80;;
18657;SDS011;9458;50.942;5.074;2022-09-09T09:16:17;3.55;;;1.33;;
18657;SDS011;9458;50.942;5.074;2022-09-09T09:18:51;3.65;;;1.50;;
18657;SDS011;9458;50.942;5.074;2022-09-09T09:21:21;4.13;;;1.38;;
18657;SDS011;9458;50.942;5.074;2022-09-09T09:23:59;4.43;;;1.42;;
18657;SDS011;9458;50.942;5.074;2022-09-09T09:26:31;4.38;;;1.15;;
18657;SDS011;9458;50.942;5.074;2022-09-09T09:29:10;5.10;;;1.35;;
18657;SDS011;9458;50.942;5.074;2022-09-09T09:31:41;4.80;;;1.40;;
18657;SDS011;9458;50.942;5.074;2022-09-09T09:34:13;6.03;;;1.48;;
18657;SDS011;9458;50.942;5.074;2022-09-09T09:36:41;3.92;;;1.58;;
18657;SDS011;9458;50.942;5.074;2022-09-09T09:39:22;5.63;;;2.05;;
18657;SDS011;9458;50.942;5.074;2022-09-09T09:41:52;2.75;;;1.33;;
18657;SDS011;9458;50.942;5.074;2022-09-09T09:44:22;5.40;;;1.45;;
18657;SDS011;9458;50.942;5.074;2022-09-09T09:46:52;3.80;;;1.50;;
18657;SDS011;9458;50.942;5.074;2022-09-09T09:49:20;6.18;;;1.60;;
18657;SDS011;9458;50.942;5.074;2022-09-09T09:51:47;2.25;;;1.33;;
18657;SDS011;9458;50.942;5.074;2022-09-09T09:54:16;4.05;;;1.88;;
18657;SDS011;9458;50.942;5.074;2022-09-09T09:56:48;4.53;;;1.85;;
18657;SDS011;9458;50.942;5.074;2022-09-09T10:02:15;3.55;;;1.60;;
18657;SDS011;9458;50.942;5.074;2022-09-09T10:04:45;3.70;;;1.83;;
18657;SDS011;9458;50.942;5.074;2022-09-09T10:07:16;2.85;;;1.70;;
18657;SDS011;9458;50.942;5.074;2022-09-09T10:09:46;2.97;;;1.80;;
18657;SDS011;9458;50.942;5.074;2022-09-09T10:12:23;3.00;;;1.73;;
18657;SDS011;9458;50.942;5.074;2022-09-09T10:15:00;3.17;;;2.05;;
18657;SDS011;9458;50.942;5.074;2022-09-09T10:17:35;4.22;;;1.63;;
18657;SDS011;9458;50.942;5.074;2022-09-09T10:20:16;5.90;;;2.30;;
18657;SDS011;9458;50.942;5.074;2022-09-09T10:22:55;4.10;;;1.63;;
18657;SDS011;9458;50.942;5.074;2022-09-09T10:25:38;2.58;;;1.67;;
18657;SDS011;9458;50.942;5.074;2022-09-09T10:28:29;5.38;;;1.90;;
18657;SDS011;9458;50.942;5.074;2022-09-09T10:31:14;3.92;;;1.60;;
18657;SDS011;9458;50.942;5.074;2022-09-09T10:33:49;4.68;;;1.73;;
18657;SDS011;9458;50.942;5.074;2022-09-09T10:36:20;6.93;;;1.70;;
18657;SDS011;9458;50.942;5.074;2022-09-09T10:38:52;5.55;;;1.60;;
18657;SDS011;9458;50.942;5.074;2022-09-09T10:41:33;5.65;;;1.80;;
18657;SDS011;9458;50.942;5.074;2022-09-09T10:44:17;3.95;;;1.58;;
18657;SDS011;9458;50.942;5.074;2022-09-09T10:46:55;4.50;;;1.83;;
18657;SDS011;9458;50.942;5.074;2022-09-09T10:49:42;3.70;;;1.50;;
18657;SDS011;9458;50.942;5.074;2022-09-09T10:52:36;7.10;;;1.90;;
18657;SDS011;9458;50.942;5.074;2022-09-09T10:55:14;7.63;;;2.45;;
18657;SDS011;9458;50.942;5.074;2022-09-09T10:57:45;3.95;;;1.90;;
18657;SDS011;9458;50.942;5.074;2022-09-09T11:00:15;3.05;;;1.67;;
18657;SDS011;9458;50.942;5.074;2022-09-09T11:02:48;5.90;;;1.70;;
18657;SDS011;9458;50.942;5.074;2022-09-09T11:05:20;3.28;;;1.65;;
18657;SDS011;9458;50.942;5.074;2022-09-09T11:07:55;5.95;;;1.70;;
18657;SDS011;9458;50.942;5.074;2022-09-09T11:10:34;4.75;;;1.80;;
18657;SDS011;9458;50.942;5.074;2022-09-09T11:13:07;4.88;;;1.90;;
18657;SDS011;9458;50.942;5.074;2022-09-09T11:15:42;4.97;;;1.95;;
18657;SDS011;9458;50.942;5.074;2022-09-09T11:18:15;5.35;;;1.80;;
18657;SDS011;9458;50.942;5.074;2022-09-09T11:20:47;4.20;;;1.70;;
18657;SDS011;9458;50.942;5.074;2022-09-09T11:23:18;3.78;;;1.70;;
18657;SDS011;9458;50.942;5.074;2022-09-09T11:25:51;3.85;;;1.58;;
18657;SDS011;9458;50.942;5.074;2022-09-09T11:28:32;3.35;;;1.50;;
18657;SDS011;9458;50.942;5.074;2022-09-09T11:31:28;4.07;;;1.65;;
18657;SDS011;9458;50.942;5.074;2022-09-09T11:34:15;4.93;;;1.90;;
18657;SDS011;9458;50.942;5.074;2022-09-09T11:37:08;7.43;;;2.08;;
18657;SDS011;9458;50.942;5.074;2022-09-09T11:39:52;3.85;;;1.50;;
18657;SDS011;9458;50.942;5.074;2022-09-09T11:42:34;5.53;;;1.70;;
18657;SDS011;9458;50.942;5.074;2022-09-09T11:45:09;3.53;;;1.42;;
18657;SDS011;9458;50.942;5.074;2022-09-09T11:47:50;5.22;;;1.65;;
18657;SDS011;9458;50.942;5.074;2022-09-09T11:50:31;3.90;;;1.70;;
18657;SDS011;9458;50.942;5.074;2022-09-09T11:58:37;2.50;;;1.42;;
18657;SDS011;9458;50.942;5.074;2022-09-09T12:01:15;4.00;;;1.58;;
18657;SDS011;9458;50.942;5.074;2022-09-09T12:03:54;5.05;;;1.77;;
18657;SDS011;9458;50.942;5.074;2022-09-09T12:06:33;4.30;;;1.63;;
18657;SDS011;9458;50.942;5.074;2022-09-09T12:09:16;5.90;;;2.05;;
18657;SDS011;9458;50.942;5.074;2022-09-09T12:11:48;4.63;;;1.48;;
18657;SDS011;9458;50.942;5.074;2022-09-09T12:14:20;4.28;;;1.65;;
18657;SDS011;9458;50.942;5.074;2022-09-09T12:16:50;2.67;;;1.50;;
18657;SDS011;9458;50.942;5.074;2022-09-09T12:19:19;3.00;;;1.33;;
18657;SDS011;9458;50.942;5.074;2022-09-09T12:21:53;4.18;;;1.30;;
18657;SDS011;9458;50.942;5.074;2022-09-09T12:24:30;3.15;;;1.55;;
18657;SDS011;9458;50.942;5.074;2022-09-09T12:27:06;3.00;;;1.17;;
18657;SDS011;9458;50.942;5.074;2022-09-09T12:29:43;2.22;;;1.20;;
18657;SDS011;9458;50.942;5.074;2022-09-09T12:32:19;4.65;;;1.17;;
18657;SDS011;9458;50.942;5.074;2022-09-09T12:34:49;3.67;;;1.10;;
18657;SDS011;9458;50.942;5.074;2022-09-09T12:37:25;2.45;;;1.17;;
18657;SDS011;9458;50.942;5.074;2022-09-09T12:39:59;2.40;;;1.30;;
18657;SDS011;9458;50.942;5.074;2022-09-09T12:42:29;4.30;;;1.70;;
18657;SDS011;9458;50.942;5.074;2022-09-09T12:44:59;3.95;;;1.30;;
18657;SDS011;9458;50.942;5.074;2022-09-09T12:47:33;2.65;;;1.52;;
18657;SDS011;9458;50.942;5.074;2022-09-09T12:50:12;1.73;;;1.13;;
18657;SDS011;9458;50.942;5.074;2022-09-09T12:52:45;4.90;;;1.05;;
18657;SDS011;9458;50.942;5.074;2022-09-09T12:55:16;3.15;;;1.23;;
18657;SDS011;9458;50.942;5.074;2022-09-09T12:57:47;1.33;;;1.10;;
18657;SDS011;9458;50.942;5.074;2022-09-09T13:00:17;3.22;;;1.38;;
18657;SDS011;9458;50.942;5.074;2022-09-09T13:02:49;1.63;;;1.10;;
18657;SDS011;9458;50.942;5.074;2022-09-09T13:05:20;4.18;;;1.27;;
18657;SDS011;9458;50.942;5.074;2022-09-09T13:07:50;4.40;;;1.23;;
18657;SDS011;9458;50.942;5.074;2022-09-09T13:10:24;2.85;;;1.50;;
18657;SDS011;9458;50.942;5.074;2022-09-09T13:12:55;2.22;;;1.30;;
18657;SDS011;9458;50.942;5.074;2022-09-09T13:15:24;2.78;;;1.20;;
18657;SDS011;9458;50.942;5.074;2022-09-09T13:17:56;4.38;;;1.30;;
18657;SDS011;9458;50.942;5.074;2022-09-09T13:20:26;5.63;;;1.23;;
18657;SDS011;9458;50.942;5.074;2022-09-09T13:22:58;3.08;;;1.30;;
18657;SDS011;9458;50.942;5.074;2022-09-09T13:25:26;5.10;;;1.40;;
18657;SDS011;9458;50.942;5.074;2022-09-09T13:27:56;5.28;;;1.30;;
18657;SDS011;9458;50.942;5.074;2022-09-09T13:30:27;2.88;;;1.15;;
18657;SDS011;9458;50.942;5.074;2022-09-09T13:33:01;3.85;;;1.15;;
18657;SDS011;9458;50.942;5.074;2022-09-09T13:35:30;1.92;;;0.90;;
18657;SDS011;9458;50.942;5.074;2022-09-09T13:38:00;1.75;;;0.95;;
18657;SDS011;9458;50.942;5.074;2022-09-09T13:40:35;3.53;;;1.15;;
18657;SDS011;9458;50.942;5.074;2022-09-09T13:43:04;2.53;;;1.25;;
18657;SDS011;9458;50.942;5.074;2022-09-09T13:45:31;2.53;;;1.40;;
18657;SDS011;9458;50.942;5.074;2022-09-09T13:48:08;4.10;;;1.60;;
18657;SDS011;9458;50.942;5.074;2022-09-09T13:50:37;4.25;;;1.42;;
18657;SDS011;9458;50.942;5.074;2022-09-09T13:53:08;4.30;;;1.40;;
18657;SDS011;9458;50.942;5.074;2022-09-09T13:55:36;5.15;;;1.30;;
18657;SDS011;9458;50.942;5.074;2022-09-09T13:58:04;3.20;;;1.90;;
18657;SDS011;9458;50.942;5.074;2022-09-09T14:00:33;3.72;;;1.25;;
18657;SDS011;9458;50.942;5.074;2022-09-09T14:03:01;2.88;;;1.10;;
18657;SDS011;9458;50.942;5.074;2022-09-09T14:05:30;1.95;;;1.00;;
18657;SDS011;9458;50.942;5.074;2022-09-09T14:07:59;1.90;;;1.00;;
18657;SDS011;9458;50.942;5.074;2022-09-09T14:10:29;2.42;;;0.82;;
18657;SDS011;9458;50.942;5.074;2022-09-09T14:12:57;2.92;;;1.20;;
18657;SDS011;9458;50.942;5.074;2022-09-09T14:15:24;3.90;;;1.30;;
18657;SDS011;9458;50.942;5.074;2022-09-09T14:17:52;2.03;;;1.20;;
18657;SDS011;9458;50.942;5.074;2022-09-09T14:20:19;3.08;;;1.10;;
18657;SDS011;9458;50.942;5.074;2022-09-09T14:22:47;1.10;;;1.00;;
18657;SDS011;9458;50.942;5.074;2022-09-09T14:25:14;1.00;;;0.90;;
18657;SDS011;9458;50.942;5.074;2022-09-09T14:27:44;4.30;;;1.20;;
18657;SDS011;9458;50.942;5.074;2022-09-09T14:30:12;2.88;;;0.98;;
18657;SDS011;9458;50.942;5.074;2022-09-09T14:32:40;2.40;;;1.10;;
18657;SDS011;9458;50.942;5.074;2022-09-09T14:35:07;2.88;;;1.20;;
18657;SDS011;9458;50.942;5.074;2022-09-09T14:37:35;1.40;;;1.05;;
18657;SDS011;9458;50.942;5.074;2022-09-09T14:40:04;2.05;;;0.90;;
18657;SDS011;9458;50.942;5.074;2022-09-09T14:42:33;2.15;;;1.10;;
18657;SDS011;9458;50.942;5.074;2022-09-09T14:45:02;1.45;;;1.02;;
18657;SDS011;9458;50.942;5.074;2022-09-09T14:47:30;4.53;;;1.23;;
18657;SDS011;9458;50.942;5.074;2022-09-09T14:49:58;3.60;;;0.98;;
18657;SDS011;9458;50.942;5.074;2022-09-09T14:52:30;2.95;;;1.15;;
18657;SDS011;9458;50.942;5.074;2022-09-09T14:55:04;2.22;;;1.10;;
18657;SDS011;9458;50.942;5.074;2022-09-09T14:57:37;3.53;;;1.13;;
18657;SDS011;9458;50.942;5.074;2022-09-09T15:02:51;2.75;;;0.90;;
18657;SDS011;9458;50.942;5.074;2022-09-09T15:05:39;1.40;;;0.88;;
18657;SDS011;9458;50.942;5.074;2022-09-09T15:08:14;2.13;;;1.00;;
18657;SDS011;9458;50.942;5.074;2022-09-09T15:11:09;1.27;;;1.00;;
18657;SDS011;9458;50.942;5.074;2022-09-09T15:14:07;2.42;;;1.25;;
18657;SDS011;9458;50.942;5.074;2022-09-09T15:19:49;4.40;;;1.13;;
18657;SDS011;9458;50.942;5.074;2022-09-09T15:22:33;2.22;;;1.10;;
18657;SDS011;9458;50.942;5.074;2022-09-09T15:25:04;3.60;;;1.25;;
18657;SDS011;9458;50.942;5.074;2022-09-09T15:27:38;2.55;;;1.10;;
18657;SDS011;9458;50.942;5.074;2022-09-09T21:48:06;1.65;;;0.90;;
18657;SDS011;9458;50.942;5.074;2022-09-09T21:50:35;1.10;;;0.90;;
18657;SDS011;9458;50.942;5.074;2022-09-09T21:53:03;2.95;;;1.00;;
18657;SDS011;9458;50.942;5.074;2022-09-09T21:55:31;1.20;;;0.90;;
18657;SDS011;9458;50.942;5.074;2022-09-09T21:58:00;2.17;;;0.90;;
18657;SDS011;9458;50.942;5.074;2022-09-09T22:00:28;2.53;;;1.45;;
18657;SDS011;9458;50.942;5.074;2022-09-09T22:02:57;1.77;;;1.13;;
18657;SDS011;9458;50.942;5.074;2022-09-09T22:05:26;3.05;;;1.10;;